sensor_id;sensor_type;location;lat;lon;timestamp;pressure;altitude;pressure_sealevel;temperature;humidity
56040;BME280;43937;41.366;2.072;2023-05-29T00:01:20;100433.06;;;22.03;61.64
56040;BME280;43937;41.366;2.072;2023-05-29T00:03:46;100457.84;;;22.21;61.68
56040;BME280;43937;41.366;2.072;2023-05-29T00:06:13;100454.34;;;22.14;61.38
56040;BME280;43937;41.366;2.072;2023-05-29T00:08:38;100453.38;;;22.20;61.53
56040;BME280;43937;41.366;2.072;2023-05-29T00:11:04;100458.69;;;22.22;61.24
56040;BME280;43937;41.366;2.072;2023-05-29T00:13:30;100448.94;;;22.19;60.75
56040;BME280;43937;41.366;2.072;2023-05-29T00:15:55;100458.63;;;22.33;60.44
56040;BME280;43937;41.366;2.072;2023-05-29T00:18:21;100461.91;;;22.30;59.99
56040;BME280;43937;41.366;2.072;2023-05-29T00:20:47;100453.31;;;22.32;59.25
56040;BME280;43937;41.366;2.072;2023-05-29T00:23:12;100454.84;;;22.39;59.21
56040;BME280;43937;41.366;2.072;2023-05-29T00:25:38;100455.41;;;22.41;59.03
56040;BME280;43937;41.366;2.072;2023-05-29T00:28:06;100426.59;;;22.26;58.64
56040;BME280;43937;41.366;2.072;2023-05-29T00:30:32;100450.03;;;22.52;58.76
56040;BME280;43937;41.366;2.072;2023-05-29T00:32:57;100452.50;;;22.48;58.18
56040;BME280;43937;41.366;2.072;2023-05-29T00:35:24;100455.16;;;22.43;58.83
56040;BME280;43937;41.366;2.072;2023-05-29T00:37:49;100454.09;;;22.27;59.62
56040;BME280;43937;41.366;2.072;2023-05-29T00:40:15;100446.25;;;22.24;60.45
56040;BME280;43937;41.366;2.072;2023-05-29T00:42:40;100451.31;;;22.27;60.82
56040;BME280;43937;41.366;2.072;2023-05-29T00:45:06;100456.50;;;22.40;59.67
56040;BME280;43937;41.366;2.072;2023-05-29T00:47:32;100446.59;;;22.45;59.48
56040;BME280;43937;41.366;2.072;2023-05-29T00:49:57;100445.50;;;22.46;59.00
56040;BME280;43937;41.366;2.072;2023-05-29T00:52:24;100450.69;;;22.42;59.08
56040;BME280;43937;41.366;2.072;2023-05-29T00:54:51;100437.09;;;22.40;57.39
56040;BME280;43937;41.366;2.072;2023-05-29T00:59:26;100444.56;;;22.57;56.44
56040;BME280;43937;41.366;2.072;2023-05-29T01:01:55;100436.00;;;22.58;56.15
56040;BME280;43937;41.366;2.072;2023-05-29T01:04:21;100444.22;;;22.70;55.27
56040;BME280;43937;41.366;2.072;2023-05-29T01:06:49;100431.13;;;22.49;52.68
56040;BME280;43937;41.366;2.072;2023-05-29T01:09:15;100449.44;;;22.50;53.30
56040;BME280;43937;41.366;2.072;2023-05-29T01:14:36;100448.88;;;22.31;51.63
56040;BME280;43937;41.366;2.072;2023-05-29T01:17:15;100449.63;;;22.43;51.62
56040;BME280;43937;41.366;2.072;2023-05-29T01:25:15;100445.06;;;22.20;52.98
56040;BME280;43937;41.366;2.072;2023-05-29T01:27:41;100432.31;;;22.19;53.08
56040;BME280;43937;41.366;2.072;2023-05-29T01:30:11;100401.31;;;21.93;54.03
56040;BME280;43937;41.366;2.072;2023-05-29T01:32:37;100429.25;;;22.04;55.81
56040;BME280;43937;41.366;2.072;2023-05-29T01:35:04;100393.78;;;21.89;55.89
56040;BME280;43937;41.366;2.072;2023-05-29T01:37:29;100390.56;;;21.80;56.24
56040;BME280;43937;41.366;2.072;2023-05-29T01:39:55;100419.16;;;21.98;55.36
56040;BME280;43937;41.366;2.072;2023-05-29T01:42:20;100417.03;;;21.88;54.38
56040;BME280;43937;41.366;2.072;2023-05-29T01:44:46;100412.41;;;21.93;54.19
56040;BME280;43937;41.366;2.072;2023-05-29T01:47:12;100396.06;;;21.63;54.75
56040;BME280;43937;41.366;2.072;2023-05-29T01:49:39;100402.47;;;21.64;54.54
56040;BME280;43937;41.366;2.072;2023-05-29T01:52:04;100414.13;;;21.66;54.45
56040;BME280;43937;41.366;2.072;2023-05-29T01:54:30;100413.56;;;21.64;53.99
56040;BME280;43937;41.366;2.072;2023-05-29T01:56:56;100408.47;;;21.72;53.79
56040;BME280;43937;41.366;2.072;2023-05-29T01:59:22;100407.97;;;21.76;53.14
56040;BME280;43937;41.366;2.072;2023-05-29T02:01:48;100414.78;;;21.85;53.05
56040;BME280;43937;41.366;2.072;2023-05-29T02:04:13;100401.50;;;21.87;52.73
56040;BME280;43937;41.366;2.072;2023-05-29T02:06:39;100399.81;;;21.86;53.13
56040;BME280;43937;41.366;2.072;2023-05-29T02:09:04;100401.50;;;21.87;52.94
56040;BME280;43937;41.366;2.072;2023-05-29T02:11:31;100396.56;;;21.89;52.90
56040;BME280;43937;41.366;2.072;2023-05-29T02:13:56;100398.66;;;21.82;53.68
56040;BME280;43937;41.366;2.072;2023-05-29T02:16:22;100384.84;;;21.70;54.37
56040;BME280;43937;41.366;2.072;2023-05-29T02:18:47;100399.66;;;21.76;54.34
56040;BME280;43937;41.366;2.072;2023-05-29T02:21:13;100404.97;;;21.65;54.65
56040;BME280;43937;41.366;2.072;2023-05-29T02:23:38;100395.72;;;21.60;54.62
56040;BME280;43937;41.366;2.072;2023-05-29T02:26:04;100370.69;;;21.26;54.61
56040;BME280;43937;41.366;2.072;2023-05-29T02:28:30;100401.38;;;21.36;54.37
56040;BME280;43937;41.366;2.072;2023-05-29T02:30:56;100396.09;;;21.23;54.59
56040;BME280;43937;41.366;2.072;2023-05-29T02:33:21;100402.94;;;21.20;54.36
56040;BME280;43937;41.366;2.072;2023-05-29T02:35:47;100412.34;;;21.19;54.88
56040;BME280;43937;41.366;2.072;2023-05-29T02:38:12;100403.66;;;21.27;54.88
56040;BME280;43937;41.366;2.072;2023-05-29T02:40:38;100400.41;;;21.31;54.73
56040;BME280;43937;41.366;2.072;2023-05-29T02:43:05;100405.34;;;21.28;55.18
56040;BME280;43937;41.366;2.072;2023-05-29T02:47:23;100402.59;;;21.17;55.33
56040;BME280;43937;41.366;2.072;2023-05-29T02:49:48;100399.22;;;21.15;55.90
56040;BME280;43937;41.366;2.072;2023-05-29T02:52:14;100393.25;;;21.06;55.85
56040;BME280;43937;41.366;2.072;2023-05-29T02:54:39;100396.28;;;20.93;56.34
56040;BME280;43937;41.366;2.072;2023-05-29T02:57:05;100390.88;;;20.86;56.93
56040;BME280;43937;41.366;2.072;2023-05-29T02:59:30;100393.78;;;20.91;56.42
56040;BME280;43937;41.366;2.072;2023-05-29T03:04:04;100374.41;;;20.91;56.40
56040;BME280;43937;41.366;2.072;2023-05-29T03:06:29;100378.84;;;20.80;56.52
56040;BME280;43937;41.366;2.072;2023-05-29T03:08:55;100357.84;;;20.68;56.86
56040;BME280;43937;41.366;2.072;2023-05-29T03:11:20;100362.19;;;20.64;56.76
56040;BME280;43937;41.366;2.072;2023-05-29T03:13:48;100356.16;;;20.67;56.79
56040;BME280;43937;41.366;2.072;2023-05-29T03:16:14;100354.09;;;20.74;56.27
56040;BME280;43937;41.366;2.072;2023-05-29T03:18:40;100362.41;;;20.74;56.15
56040;BME280;43937;41.366;2.072;2023-05-29T03:21:06;100346.53;;;20.69;56.27
56040;BME280;43937;41.366;2.072;2023-05-29T03:23:33;100351.59;;;20.61;56.45
56040;BME280;43937;41.366;2.072;2023-05-29T03:25:58;100343.06;;;20.62;56.67
56040;BME280;43937;41.366;2.072;2023-05-29T03:28:23;100350.41;;;20.56;57.00
56040;BME280;43937;41.366;2.072;2023-05-29T03:30:49;100337.41;;;20.57;56.74
56040;BME280;43937;41.366;2.072;2023-05-29T03:33:15;100346.91;;;20.61;56.80
56040;BME280;43937;41.366;2.072;2023-05-29T03:35:40;100331.13;;;20.50;56.72
56040;BME280;43937;41.366;2.072;2023-05-29T03:38:07;100345.00;;;20.62;56.33
56040;BME280;43937;41.366;2.072;2023-05-29T03:40:32;100346.78;;;20.56;56.75
56040;BME280;43937;41.366;2.072;2023-05-29T03:42:58;100350.50;;;20.62;56.42
56040;BME280;43937;41.366;2.072;2023-05-29T03:45:23;100353.88;;;20.64;56.38
56040;BME280;43937;41.366;2.072;2023-05-29T03:47:49;100348.59;;;20.62;56.23
56040;BME280;43937;41.366;2.072;2023-05-29T03:50:14;100361.22;;;20.58;56.51
56040;BME280;43937;41.366;2.072;2023-05-29T03:52:41;100351.69;;;20.42;57.04
56040;BME280;43937;41.366;2.072;2023-05-29T03:55:09;100359.28;;;20.47;56.74
56040;BME280;43937;41.366;2.072;2023-05-29T03:57:40;100366.38;;;20.54;56.46
56040;BME280;43937;41.366;2.072;2023-05-29T04:00:08;100365.78;;;20.64;56.33
56040;BME280;43937;41.366;2.072;2023-05-29T04:02:40;100353.91;;;20.52;56.44
56040;BME280;43937;41.366;2.072;2023-05-29T04:05:07;100367.47;;;20.53;56.30
56040;BME280;43937;41.366;2.072;2023-05-29T04:07:34;100330.91;;;20.28;56.47
56040;BME280;43937;41.366;2.072;2023-05-29T04:10:02;100372.34;;;20.51;57.06
56040;BME280;43937;41.366;2.072;2023-05-29T04:12:28;100376.34;;;20.44;57.70
56040;BME280;43937;41.366;2.072;2023-05-29T04:14:53;100380.56;;;20.46;57.83
56040;BME280;43937;41.366;2.072;2023-05-29T04:17:19;100370.84;;;20.55;57.61
56040;BME280;43937;41.366;2.072;2023-05-29T04:19:44;100368.28;;;20.42;57.89
56040;BME280;43937;41.366;2.072;2023-05-29T04:22:10;100369.13;;;20.43;58.42
56040;BME280;43937;41.366;2.072;2023-05-29T04:24:35;100347.38;;;20.23;58.46
56040;BME280;43937;41.366;2.072;2023-05-29T04:27:01;100372.59;;;20.38;58.77
56040;BME280;43937;41.366;2.072;2023-05-29T04:29:28;100382.38;;;20.52;58.55
56040;BME280;43937;41.366;2.072;2023-05-29T04:31:54;100376.34;;;20.44;58.28
56040;BME280;43937;41.366;2.072;2023-05-29T04:34:20;100385.63;;;20.61;58.00
56040;BME280;43937;41.366;2.072;2023-05-29T04:36:47;100389.22;;;20.73;57.44
56040;BME280;43937;41.366;2.072;2023-05-29T04:39:13;100379.47;;;20.83;56.86
56040;BME280;43937;41.366;2.072;2023-05-29T04:41:39;100390.97;;;21.03;56.23
56040;BME280;43937;41.366;2.072;2023-05-29T04:44:06;100398.00;;;21.22;55.75
56040;BME280;43937;41.366;2.072;2023-05-29T04:46:31;100399.31;;;21.43;55.13
56040;BME280;43937;41.366;2.072;2023-05-29T04:48:57;100386.75;;;21.53;54.74
56040;BME280;43937;41.366;2.072;2023-05-29T04:51:23;100407.38;;;21.90;54.14
56040;BME280;43937;41.366;2.072;2023-05-29T04:53:50;100409.44;;;22.12;53.77
56040;BME280;43937;41.366;2.072;2023-05-29T04:57:31;100405.06;;;22.33;52.85
56040;BME280;43937;41.366;2.072;2023-05-29T04:59:56;100413.38;;;22.50;52.22
56040;BME280;43937;41.366;2.072;2023-05-29T05:02:22;100404.47;;;22.48;51.72
56040;BME280;43937;41.366;2.072;2023-05-29T05:04:47;100403.03;;;22.62;51.39
56040;BME280;43937;41.366;2.072;2023-05-29T05:07:13;100399.03;;;22.19;52.23
56040;BME280;43937;41.366;2.072;2023-05-29T05:09:41;100416.56;;;22.41;51.63
56040;BME280;43937;41.366;2.072;2023-05-29T05:12:07;100428.25;;;22.27;51.78
56040;BME280;43937;41.366;2.072;2023-05-29T05:14:32;100424.91;;;22.41;51.62
56040;BME280;43937;41.366;2.072;2023-05-29T05:16:57;100419.44;;;22.47;51.76
56040;BME280;43937;41.366;2.072;2023-05-29T05:19:23;100421.66;;;22.83;50.54
56040;BME280;43937;41.366;2.072;2023-05-29T05:21:48;100430.50;;;23.90;48.29
56040;BME280;43937;41.366;2.072;2023-05-29T05:24:14;100431.63;;;24.96;46.16
56040;BME280;43937;41.366;2.072;2023-05-29T05:26:39;100431.22;;;25.83;43.65
56040;BME280;43937;41.366;2.072;2023-05-29T05:29:05;100435.16;;;26.43;42.16
56040;BME280;43937;41.366;2.072;2023-05-29T05:31:30;100441.78;;;27.13;40.33
56040;BME280;43937;41.366;2.072;2023-05-29T05:33:56;100444.44;;;27.54;40.03
56040;BME280;43937;41.366;2.072;2023-05-29T05:36:21;100428.22;;;28.06;39.00
56040;BME280;43937;41.366;2.072;2023-05-29T05:38:46;100450.38;;;28.31;37.93
56040;BME280;43937;41.366;2.072;2023-05-29T05:41:12;100455.84;;;28.18;38.70
56040;BME280;43937;41.366;2.072;2023-05-29T05:43:37;100461.53;;;28.76;37.74
56040;BME280;43937;41.366;2.072;2023-05-29T05:47:47;100444.75;;;29.48;35.96
56040;BME280;43937;41.366;2.072;2023-05-29T05:50:12;100466.06;;;30.82;34.17
56040;BME280;43937;41.366;2.072;2023-05-29T05:52:38;100452.59;;;31.11;33.12
56040;BME280;43937;41.366;2.072;2023-05-29T05:55:04;100457.66;;;31.78;32.47
56040;BME280;43937;41.366;2.072;2023-05-29T05:57:29;100467.59;;;32.48;31.20
56040;BME280;43937;41.366;2.072;2023-05-29T05:59:57;100491.19;;;32.38;30.48
56040;BME280;43937;41.366;2.072;2023-05-29T06:02:23;100487.69;;;32.78;29.98
56040;BME280;43937;41.366;2.072;2023-05-29T06:04:48;100484.16;;;33.92;29.22
56040;BME280;43937;41.366;2.072;2023-05-29T06:07:14;100490.50;;;34.84;27.99
56040;BME280;43937;41.366;2.072;2023-05-29T06:09:40;100485.88;;;35.74;26.41
56040;BME280;43937;41.366;2.072;2023-05-29T06:12:07;100494.13;;;36.51;25.06
56040;BME280;43937;41.366;2.072;2023-05-29T06:14:33;100482.47;;;36.98;24.64
56040;BME280;43937;41.366;2.072;2023-05-29T06:17:00;100488.72;;;37.73;24.09
56040;BME280;43937;41.366;2.072;2023-05-29T06:19:25;100502.34;;;37.68;23.84
56040;BME280;43937;41.366;2.072;2023-05-29T06:21:50;100499.72;;;37.87;23.69
56040;BME280;43937;41.366;2.072;2023-05-29T06:24:16;100503.66;;;38.35;23.08
56040;BME280;43937;41.366;2.072;2023-05-29T06:26:41;100497.94;;;38.07;23.24
56040;BME280;43937;41.366;2.072;2023-05-29T06:29:07;100507.56;;;39.15;21.79
56040;BME280;43937;41.366;2.072;2023-05-29T06:31:32;100489.09;;;39.25;22.04
56040;BME280;43937;41.366;2.072;2023-05-29T06:33:59;100506.22;;;39.56;21.43
56040;BME280;43937;41.366;2.072;2023-05-29T06:36:24;100503.50;;;39.95;20.79
56040;BME280;43937;41.366;2.072;2023-05-29T06:38:51;100510.31;;;40.26;20.70
56040;BME280;43937;41.366;2.072;2023-05-29T06:41:17;100522.38;;;39.84;20.73
56040;BME280;43937;41.366;2.072;2023-05-29T06:43:42;100519.34;;;40.28;20.35
56040;BME280;43937;41.366;2.072;2023-05-29T06:46:07;100531.94;;;39.44;21.55
56040;BME280;43937;41.366;2.072;2023-05-29T06:48:34;100524.59;;;38.55;22.29
56040;BME280;43937;41.366;2.072;2023-05-29T06:51:00;100530.72;;;39.13;22.01
56040;BME280;43937;41.366;2.072;2023-05-29T06:53:25;100530.13;;;40.03;20.84
56040;BME280;43937;41.366;2.072;2023-05-29T06:55:52;100532.28;;;39.90;20.65
56040;BME280;43937;41.366;2.072;2023-05-29T06:58:18;100539.19;;;41.02;20.06
56040;BME280;43937;41.366;2.072;2023-05-29T07:00:43;100540.91;;;41.26;19.89
56040;BME280;43937;41.366;2.072;2023-05-29T07:03:08;100525.84;;;39.93;21.33
56040;BME280;43937;41.366;2.072;2023-05-29T07:05:34;100537.78;;;39.20;21.79
56040;BME280;43937;41.366;2.072;2023-05-29T07:07:59;100546.44;;;39.71;21.18
56040;BME280;43937;41.366;2.072;2023-05-29T07:10:25;100538.63;;;39.68;21.61
56040;BME280;43937;41.366;2.072;2023-05-29T07:12:50;100538.69;;;38.52;21.92
56040;BME280;43937;41.366;2.072;2023-05-29T07:15:16;100545.88;;;37.84;22.80
56040;BME280;43937;41.366;2.072;2023-05-29T07:17:41;100557.34;;;37.63;22.63
56040;BME280;43937;41.366;2.072;2023-05-29T07:20:07;100547.16;;;37.38;22.65
56040;BME280;43937;41.366;2.072;2023-05-29T07:22:34;100549.66;;;37.06;23.65
56040;BME280;43937;41.366;2.072;2023-05-29T07:25:00;100559.59;;;37.70;23.14
56040;BME280;43937;41.366;2.072;2023-05-29T07:28:36;100535.25;;;34.91;26.28
56040;BME280;43937;41.366;2.072;2023-05-29T07:31:02;100533.28;;;34.65;26.85
56040;BME280;43937;41.366;2.072;2023-05-29T07:33:27;100559.44;;;35.44;26.39
56040;BME280;43937;41.366;2.072;2023-05-29T07:35:53;100566.72;;;34.55;27.43
56040;BME280;43937;41.366;2.072;2023-05-29T07:38:18;100578.66;;;35.04;27.24
56040;BME280;43937;41.366;2.072;2023-05-29T07:40:44;100575.47;;;35.70;27.30
56040;BME280;43937;41.366;2.072;2023-05-29T07:43:09;100550.38;;;35.04;27.49
56040;BME280;43937;41.366;2.072;2023-05-29T07:45:35;100563.88;;;33.71;29.90
56040;BME280;43937;41.366;2.072;2023-05-29T07:48:01;100574.53;;;33.21;31.63
56040;BME280;43937;41.366;2.072;2023-05-29T07:50:26;100577.59;;;33.64;30.95
56040;BME280;43937;41.366;2.072;2023-05-29T07:52:52;100581.19;;;32.80;33.08
56040;BME280;43937;41.366;2.072;2023-05-29T07:55:18;100581.53;;;33.23;32.47
56040;BME280;43937;41.366;2.072;2023-05-29T07:57:43;100569.34;;;33.77;31.29
56040;BME280;43937;41.366;2.072;2023-05-29T08:00:09;100565.34;;;33.38;31.95
56040;BME280;43937;41.366;2.072;2023-05-29T08:02:38;100576.50;;;33.74;31.39
56040;BME280;43937;41.366;2.072;2023-05-29T08:05:04;100569.38;;;34.69;30.69
56040;BME280;43937;41.366;2.072;2023-05-29T08:07:29;100574.94;;;35.38;29.45
56040;BME280;43937;41.366;2.072;2023-05-29T08:09:55;100570.88;;;34.92;29.89
56040;BME280;43937;41.366;2.072;2023-05-29T08:12:21;100567.22;;;34.83;30.14
56040;BME280;43937;41.366;2.072;2023-05-29T08:14:46;100565.50;;;34.99;29.86
56040;BME280;43937;41.366;2.072;2023-05-29T08:17:12;100577.44;;;35.78;29.36
56040;BME280;43937;41.366;2.072;2023-05-29T08:19:37;100565.34;;;35.13;29.77
56040;BME280;43937;41.366;2.072;2023-05-29T08:22:03;100576.69;;;35.60;29.75
56040;BME280;43937;41.366;2.072;2023-05-29T08:24:28;100579.72;;;36.44;28.82
56040;BME280;43937;41.366;2.072;2023-05-29T08:26:54;100579.66;;;35.17;29.88
56040;BME280;43937;41.366;2.072;2023-05-29T08:29:19;100567.53;;;35.07;30.42
56040;BME280;43937;41.366;2.072;2023-05-29T08:31:45;100568.50;;;34.94;30.70
56040;BME280;43937;41.366;2.072;2023-05-29T08:34:11;100563.03;;;34.89;30.62
56040;BME280;43937;41.366;2.072;2023-05-29T08:36:36;100578.91;;;35.84;29.58
56040;BME280;43937;41.366;2.072;2023-05-29T08:39:02;100551.25;;;34.70;31.70
56040;BME280;43937;41.366;2.072;2023-05-29T08:44:23;100583.13;;;34.27;32.33
56040;BME280;43937;41.366;2.072;2023-05-29T08:46:54;100563.31;;;33.29;33.79
56040;BME280;43937;41.366;2.072;2023-05-29T08:49:21;100568.03;;;34.57;31.38
56040;BME280;43937;41.366;2.072;2023-05-29T08:51:50;100575.34;;;34.58;31.78
56040;BME280;43937;41.366;2.072;2023-05-29T08:54:20;100585.81;;;34.32;32.92
56040;BME280;43937;41.366;2.072;2023-05-29T08:56:45;100577.41;;;32.26;35.55
56040;BME280;43937;41.366;2.072;2023-05-29T08:59:11;100591.78;;;32.97;34.30
56040;BME280;43937;41.366;2.072;2023-05-29T09:01:38;100597.63;;;32.28;35.85
56040;BME280;43937;41.366;2.072;2023-05-29T09:04:04;100579.88;;;30.98;37.31
56040;BME280;43937;41.366;2.072;2023-05-29T09:06:30;100586.47;;;31.07;36.11
56040;BME280;43937;41.366;2.072;2023-05-29T09:08:56;100573.06;;;30.85;36.81
56040;BME280;43937;41.366;2.072;2023-05-29T09:11:23;100588.44;;;30.12;37.71
56040;BME280;43937;41.366;2.072;2023-05-29T09:13:49;100584.03;;;31.00;36.13
56040;BME280;43937;41.366;2.072;2023-05-29T09:16:16;100587.88;;;29.67;38.88
56040;BME280;43937;41.366;2.072;2023-05-29T09:18:42;100566.75;;;30.18;37.36
56040;BME280;43937;41.366;2.072;2023-05-29T09:21:25;100567.91;;;29.44;39.19
56040;BME280;43937;41.366;2.072;2023-05-29T09:23:53;100587.28;;;29.70;39.06
56040;BME280;43937;41.366;2.072;2023-05-29T09:26:21;100589.31;;;29.06;40.23
56040;BME280;43937;41.366;2.072;2023-05-29T09:28:47;100576.25;;;28.52;41.31
56040;BME280;43937;41.366;2.072;2023-05-29T09:31:16;100583.72;;;29.01;40.91
56040;BME280;43937;41.366;2.072;2023-05-29T09:33:50;100596.34;;;28.98;40.64
56040;BME280;43937;41.366;2.072;2023-05-29T09:36:23;100587.13;;;28.59;42.03
56040;BME280;43937;41.366;2.072;2023-05-29T09:38:50;100592.91;;;28.23;42.73
56040;BME280;43937;41.366;2.072;2023-05-29T09:41:23;100586.97;;;28.45;42.86
56040;BME280;43937;41.366;2.072;2023-05-29T09:43:52;100534.38;;;27.87;43.01
56040;BME280;43937;41.366;2.072;2023-05-29T09:47:58;100591.44;;;28.41;42.88
56040;BME280;43937;41.366;2.072;2023-05-29T09:50:27;100588.47;;;27.36;44.98
56040;BME280;43937;41.366;2.072;2023-05-29T09:52:57;100574.72;;;27.50;43.99
56040;BME280;43937;41.366;2.072;2023-05-29T09:55:24;100592.66;;;27.39;45.06
56040;BME280;43937;41.366;2.072;2023-05-29T09:57:53;100594.06;;;27.31;45.32
56040;BME280;43937;41.366;2.072;2023-05-29T10:00:18;100593.50;;;27.39;45.24
56040;BME280;43937;41.366;2.072;2023-05-29T10:02:45;100599.94;;;26.94;46.38
56040;BME280;43937;41.366;2.072;2023-05-29T10:05:11;100592.34;;;26.59;47.52
56040;BME280;43937;41.366;2.072;2023-05-29T10:07:43;100576.06;;;26.15;48.58
56040;BME280;43937;41.366;2.072;2023-05-29T10:10:11;100599.66;;;26.90;47.36
56040;BME280;43937;41.366;2.072;2023-05-29T10:12:38;100567.25;;;27.15;46.79
56040;BME280;43937;41.366;2.072;2023-05-29T10:15:07;100598.25;;;28.19;44.41
56040;BME280;43937;41.366;2.072;2023-05-29T10:17:38;100582.63;;;29.02;42.86
56040;BME280;43937;41.366;2.072;2023-05-29T10:20:05;100600.66;;;28.86;42.71
56040;BME280;43937;41.366;2.072;2023-05-29T10:22:39;100599.09;;;29.38;40.93
56040;BME280;43937;41.366;2.072;2023-05-29T10:25:08;100588.47;;;29.06;40.83
56040;BME280;43937;41.366;2.072;2023-05-29T10:27:34;100600.00;;;28.99;40.88
56040;BME280;43937;41.366;2.072;2023-05-29T10:30:13;100606.72;;;29.03;40.24
56040;BME280;43937;41.366;2.072;2023-05-29T10:35:31;100605.81;;;29.08;39.80
56040;BME280;43937;41.366;2.072;2023-05-29T10:38:11;100603.59;;;29.39;40.87
56040;BME280;43937;41.366;2.072;2023-05-29T10:40:38;100592.84;;;28.83;42.10
56040;BME280;43937;41.366;2.072;2023-05-29T10:43:03;100590.66;;;28.74;42.20
56040;BME280;43937;41.366;2.072;2023-05-29T10:50:41;100593.38;;;28.40;43.83
56040;BME280;43937;41.366;2.072;2023-05-29T10:53:07;100589.25;;;28.33;44.46
56040;BME280;43937;41.366;2.072;2023-05-29T10:55:36;100587.59;;;28.71;44.00
56040;BME280;43937;41.366;2.072;2023-05-29T10:58:25;100585.84;;;28.80;42.38
56040;BME280;43937;41.366;2.072;2023-05-29T11:00:52;100595.03;;;28.51;43.18
56040;BME280;43937;41.366;2.072;2023-05-29T11:03:23;100589.50;;;28.81;43.01
56040;BME280;43937;41.366;2.072;2023-05-29T11:06:16;100590.94;;;29.12;41.44
56040;BME280;43937;41.366;2.072;2023-05-29T11:08:44;100578.31;;;29.15;41.55
56040;BME280;43937;41.366;2.072;2023-05-29T11:11:15;100580.19;;;29.78;40.09
56040;BME280;43937;41.366;2.072;2023-05-29T11:13:41;100586.44;;;29.70;40.29
56040;BME280;43937;41.366;2.072;2023-05-29T11:16:19;100577.72;;;28.84;42.39
56040;BME280;43937;41.366;2.072;2023-05-29T11:18:47;100560.13;;;29.65;40.15
56040;BME280;43937;41.366;2.072;2023-05-29T11:23:47;100579.41;;;29.14;41.14
56040;BME280;43937;41.366;2.072;2023-05-29T11:26:13;100569.78;;;29.25;40.79
56040;BME280;43937;41.366;2.072;2023-05-29T11:28:39;100577.72;;;29.18;41.12
56040;BME280;43937;41.366;2.072;2023-05-29T11:31:08;100576.59;;;28.40;43.41
56040;BME280;43937;41.366;2.072;2023-05-29T11:33:37;100581.38;;;29.13;41.52
56040;BME280;43937;41.366;2.072;2023-05-29T11:36:04;100562.19;;;28.18;43.24
56040;BME280;43937;41.366;2.072;2023-05-29T11:38:31;100577.16;;;28.47;43.46
56040;BME280;43937;41.366;2.072;2023-05-29T11:40:57;100574.91;;;29.18;41.36
56040;BME280;43937;41.366;2.072;2023-05-29T11:43:28;100580.56;;;28.79;41.91
56040;BME280;43937;41.366;2.072;2023-05-29T11:45:53;100582.34;;;27.19;45.21
56040;BME280;43937;41.366;2.072;2023-05-29T11:48:18;100571.16;;;27.09;45.75
56040;BME280;43937;41.366;2.072;2023-05-29T11:52:09;100576.09;;;27.58;44.77
56040;BME280;43937;41.366;2.072;2023-05-29T11:54:36;100570.00;;;27.51;44.75
56040;BME280;43937;41.366;2.072;2023-05-29T11:57:02;100554.69;;;26.97;45.38
56040;BME280;43937;41.366;2.072;2023-05-29T11:59:34;100564.44;;;27.25;45.17
56040;BME280;43937;41.366;2.072;2023-05-29T12:02:02;100564.94;;;27.53;45.07
56040;BME280;43937;41.366;2.072;2023-05-29T12:04:28;100552.66;;;27.54;44.31
56040;BME280;43937;41.366;2.072;2023-05-29T12:06:54;100566.13;;;27.06;45.01
56040;BME280;43937;41.366;2.072;2023-05-29T12:09:27;100550.47;;;27.05;44.81
56040;BME280;43937;41.366;2.072;2023-05-29T12:11:54;100540.44;;;26.83;44.82
56040;BME280;43937;41.366;2.072;2023-05-29T12:14:20;100512.72;;;27.33;43.49
56040;BME280;43937;41.366;2.072;2023-05-29T12:16:45;100511.34;;;27.05;43.66
56040;BME280;43937;41.366;2.072;2023-05-29T12:19:11;100504.94;;;26.84;43.54
56040;BME280;43937;41.366;2.072;2023-05-29T12:21:41;100532.88;;;27.09;43.18
56040;BME280;43937;41.366;2.072;2023-05-29T12:26:16;100519.19;;;27.18;42.67
56040;BME280;43937;41.366;2.072;2023-05-29T12:28:44;100544.31;;;27.33;42.47
56040;BME280;43937;41.366;2.072;2023-05-29T12:31:09;100533.34;;;27.52;42.84
56040;BME280;43937;41.366;2.072;2023-05-29T12:33:35;100529.81;;;26.90;43.48
56040;BME280;43937;41.366;2.072;2023-05-29T12:36:02;100528.16;;;27.15;42.63
56040;BME280;43937;41.366;2.072;2023-05-29T12:38:28;100504.09;;;27.04;42.57
56040;BME280;43937;41.366;2.072;2023-05-29T12:40:53;100505.44;;;27.42;42.56
56040;BME280;43937;41.366;2.072;2023-05-29T12:43:19;100535.16;;;27.93;41.59
56040;BME280;43937;41.366;2.072;2023-05-29T12:45:45;100533.13;;;27.13;41.91
56040;BME280;43937;41.366;2.072;2023-05-29T12:48:11;100527.00;;;27.21;41.16
56040;BME280;43937;41.366;2.072;2023-05-29T12:50:40;100520.34;;;27.92;40.20
56040;BME280;43937;41.366;2.072;2023-05-29T12:53:14;100526.16;;;27.10;41.55
56040;BME280;43937;41.366;2.072;2023-05-29T12:55:41;100521.38;;;27.36;41.04
56040;BME280;43937;41.366;2.072;2023-05-29T12:59:39;100518.00;;;27.39;40.43
56040;BME280;43937;41.366;2.072;2023-05-29T13:02:06;100514.47;;;26.83;42.25
56040;BME280;43937;41.366;2.072;2023-05-29T13:04:35;100486.19;;;27.30;41.00
56040;BME280;43937;41.366;2.072;2023-05-29T13:07:00;100511.09;;;26.86;43.10
56040;BME280;43937;41.366;2.072;2023-05-29T13:09:25;100480.03;;;27.38;42.45
56040;BME280;43937;41.366;2.072;2023-05-29T13:11:51;100474.00;;;27.71;41.95
56040;BME280;43937;41.366;2.072;2023-05-29T13:14:18;100492.13;;;28.28;40.46
56040;BME280;43937;41.366;2.072;2023-05-29T13:16:43;100500.38;;;28.83;40.19
56040;BME280;43937;41.366;2.072;2023-05-29T13:19:09;100491.59;;;27.76;41.60
56040;BME280;43937;41.366;2.072;2023-05-29T13:21:34;100507.13;;;28.08;41.02
56040;BME280;43937;41.366;2.072;2023-05-29T13:24:00;100504.56;;;27.52;42.78
56040;BME280;43937;41.366;2.072;2023-05-29T13:26:26;100503.75;;;28.11;42.26